createdAt,value
2024-01-30T00:00:27.330Z,69.53
2024-01-30T00:02:54.321Z,89.63
2024-01-30T00:05:21.249Z,88.30
2024-01-30T00:07:48.028Z,94.00
2024-01-30T00:10:15.151Z,99.50
2024-01-30T00:12:42.069Z,96.20
2024-01-30T00:15:10.985Z,98.15
2024-01-30T00:17:38.766Z,96.03
2024-01-30T00:20:06.894Z,85.87
2024-01-30T00:22:33.721Z,97.88
2024-01-30T00:25:00.607Z,90.07
2024-01-30T00:27:28.907Z,99.80
2024-01-30T00:29:55.828Z,106.32
2024-01-30T00:32:24.019Z,97.63
2024-01-30T00:34:50.873Z,103.18
2024-01-30T00:37:17.955Z,156.00
2024-01-30T00:39:44.865Z,161.07
2024-01-30T00:42:11.680Z,154.70
2024-01-30T00:44:39.837Z,133.27
2024-01-30T00:47:07.411Z,117.38
2024-01-30T00:49:34.620Z,115.28
2024-01-30T00:52:01.934Z,87.78
2024-01-30T00:54:28.990Z,99.50
2024-01-30T00:56:55.788Z,121.30
2024-01-30T00:59:22.592Z,93.20
2024-01-30T01:01:49.468Z,117.95
2024-01-30T01:04:16.412Z,116.38
2024-01-30T01:06:45.510Z,118.05
2024-01-30T01:09:13.386Z,117.43
2024-01-30T01:11:40.641Z,95.45
2024-01-30T01:14:07.394Z,82.13
2024-01-30T01:16:34.717Z,90.05
2024-01-30T01:19:02.326Z,77.30
2024-01-30T01:21:29.329Z,78.57
2024-01-30T01:23:56.244Z,143.05
2024-01-30T01:26:23.093Z,94.47
2024-01-30T01:28:49.872Z,85.60
2024-01-30T01:31:17.021Z,87.75
2024-01-30T01:33:44.096Z,60.93
2024-01-30T01:36:10.945Z,50.60
2024-01-30T01:38:37.766Z,53.33
2024-01-30T01:41:04.636Z,55.53
2024-01-30T01:43:31.445Z,56.28
2024-01-30T01:45:58.378Z,73.20
2024-01-30T01:48:25.678Z,64.93
2024-01-30T01:50:53.914Z,55.30
2024-01-30T01:53:20.806Z,56.20
2024-01-30T01:55:48.738Z,57.58
2024-01-30T01:58:16.213Z,59.20
2024-01-30T02:00:43.545Z,62.30
2024-01-30T02:03:13.354Z,61.75
2024-01-30T02:05:42.380Z,64.88
2024-01-30T02:08:10.007Z,83.40
2024-01-30T02:10:36.881Z,47.97
2024-01-30T02:13:03.954Z,47.92
2024-01-30T02:15:30.661Z,57.50
2024-01-30T02:17:57.452Z,60.13
2024-01-30T02:20:26.580Z,52.65
2024-01-30T02:22:55.504Z,59.97
2024-01-30T02:25:31.170Z,64.05
2024-01-30T02:27:57.887Z,76.47
2024-01-30T02:30:24.707Z,68.32
2024-01-30T02:32:51.567Z,72.47
2024-01-30T02:35:18.369Z,67.90
2024-01-30T02:37:45.116Z,70.03
2024-01-30T02:40:11.968Z,77.15
2024-01-30T02:42:38.774Z,74.07
2024-01-30T02:45:05.971Z,64.25
2024-01-30T02:47:32.828Z,71.27
2024-01-30T02:49:59.709Z,67.90
2024-01-30T02:52:26.905Z,65.40
2024-01-30T02:54:53.633Z,69.57
2024-01-30T02:57:20.396Z,91.05
2024-01-30T02:59:47.066Z,66.63
2024-01-30T03:02:13.897Z,63.83
2024-01-30T03:04:43.098Z,72.47
2024-01-30T03:07:10.243Z,71.07
2024-01-30T03:09:38.163Z,56.85
2024-01-30T03:12:07.636Z,61.20
2024-01-30T03:14:36.432Z,48.70
2024-01-30T03:17:03.867Z,58.95
2024-01-30T03:19:30.899Z,40.03
2024-01-30T03:21:57.712Z,48.53
2024-01-30T03:24:24.496Z,42.70
2024-01-30T03:26:51.354Z,54.75
2024-01-30T03:29:18.140Z,48.28
2024-01-30T03:31:44.944Z,52.60
2024-01-30T03:34:11.894Z,51.70
2024-01-30T03:36:38.729Z,48.80
2024-01-30T03:39:05.844Z,41.10
2024-01-30T03:41:32.668Z,40.15
2024-01-30T03:43:59.839Z,43.10
2024-01-30T03:46:26.669Z,45.33
2024-01-30T03:48:53.692Z,33.37
2024-01-30T03:51:20.704Z,34.72
2024-01-30T03:53:47.614Z,34.45
2024-01-30T03:56:15.185Z,35.97
2024-01-30T03:58:42.379Z,42.00
2024-01-30T04:01:14.349Z,36.87
2024-01-30T04:03:41.270Z,31.85
2024-01-30T04:06:08.287Z,43.55
2024-01-30T04:08:35.150Z,36.50
2024-01-30T04:11:08.368Z,41.05
2024-01-30T04:13:35.488Z,35.63
2024-01-30T04:16:02.952Z,38.55
2024-01-30T04:18:30.047Z,37.17
2024-01-30T04:20:56.822Z,35.53
2024-01-30T04:23:23.488Z,38.92
2024-01-30T04:25:50.382Z,33.47
2024-01-30T04:28:17.233Z,36.08
2024-01-30T04:30:43.959Z,40.53
2024-01-30T04:33:11.833Z,36.58
2024-01-30T04:35:38.716Z,38.72
2024-01-30T04:38:05.468Z,37.67
2024-01-30T04:40:32.294Z,40.47
2024-01-30T04:42:59.031Z,36.53
2024-01-30T04:45:25.765Z,45.08
2024-01-30T04:47:52.703Z,38.47
2024-01-30T04:50:20.183Z,42.97
2024-01-30T04:52:46.943Z,57.53
2024-01-30T04:55:13.930Z,51.33
2024-01-30T04:57:40.874Z,44.53
2024-01-30T05:00:08.621Z,58.97
2024-01-30T05:02:35.441Z,43.63
2024-01-30T05:05:02.503Z,47.75
2024-01-30T05:07:29.445Z,52.55
2024-01-30T05:09:58.958Z,48.80
2024-01-30T05:12:26.623Z,93.53
2024-01-30T05:14:53.331Z,60.90
2024-01-30T05:17:20.076Z,56.13
2024-01-30T05:19:47.041Z,62.25
2024-01-30T05:22:16.937Z,52.33
2024-01-30T05:24:44.326Z,48.38
2024-01-30T05:27:11.259Z,45.83
2024-01-30T05:29:38.091Z,53.88
2024-01-30T05:32:06.619Z,68.85
2024-01-30T05:34:33.796Z,61.35
2024-01-30T05:37:00.637Z,73.25
2024-01-30T05:39:27.444Z,65.27
2024-01-30T05:41:54.329Z,59.92
2024-01-30T05:44:21.159Z,75.68
2024-01-30T05:46:47.947Z,53.17
2024-01-30T05:49:14.666Z,39.22
2024-01-30T05:51:41.599Z,51.47
2024-01-30T05:54:08.413Z,46.67
2024-01-30T05:56:35.273Z,44.25
2024-01-30T05:59:02.124Z,44.35
2024-01-30T06:01:30.481Z,38.85
2024-01-30T06:03:57.417Z,37.53
2024-01-30T06:06:24.206Z,32.42
2024-01-30T06:08:50.956Z,32.67
2024-01-30T06:11:17.703Z,33.38
2024-01-30T06:13:44.430Z,31.50
2024-01-30T06:16:12.826Z,36.27
2024-01-30T06:18:39.951Z,44.92
2024-01-30T06:21:07.969Z,32.38
2024-01-30T06:23:35.476Z,33.65
2024-01-30T06:26:02.317Z,38.58
2024-01-30T06:28:29.488Z,36.77
2024-01-30T06:30:56.341Z,31.33
2024-01-30T06:33:23.287Z,96.75
2024-01-30T06:35:50.111Z,98.45
2024-01-30T06:38:16.906Z,62.90
2024-01-30T06:40:43.858Z,95.15
2024-01-30T06:43:10.874Z,89.72
2024-01-30T06:45:37.788Z,80.82
2024-01-30T06:48:04.746Z,60.42
2024-01-30T06:50:31.510Z,53.75
2024-01-30T06:52:58.297Z,65.22
2024-01-30T06:55:25.545Z,62.67
2024-01-30T06:57:52.504Z,69.95
2024-01-30T07:00:20.985Z,77.85
2024-01-30T07:02:47.762Z,91.50
2024-01-30T07:05:15.499Z,143.20
2024-01-30T07:07:42.534Z,141.98
2024-01-30T07:10:09.745Z,134.85
2024-01-30T07:12:36.610Z,126.88
2024-01-30T07:15:04.600Z,101.10
2024-01-30T07:17:31.317Z,78.07
2024-01-30T07:19:58.172Z,65.10
2024-01-30T07:22:25.030Z,67.35
2024-01-30T07:24:53.319Z,67.22
2024-01-30T07:27:20.204Z,65.03
2024-01-30T07:29:46.958Z,66.40
2024-01-30T07:32:13.807Z,63.20
2024-01-30T07:34:49.255Z,67.43
2024-01-30T07:37:20.905Z,56.75
2024-01-30T07:39:48.497Z,58.13
2024-01-30T07:42:15.426Z,51.80
2024-01-30T07:44:42.200Z,53.50
2024-01-30T07:47:09.036Z,59.35
2024-01-30T07:49:35.939Z,53.60
2024-01-30T07:52:02.965Z,51.38
2024-01-30T07:54:34.593Z,50.53
2024-01-30T07:57:02.446Z,52.50
2024-01-30T07:59:29.241Z,49.00
2024-01-30T08:01:56.152Z,47.92
2024-01-30T08:04:23.277Z,41.60
2024-01-30T08:06:50.257Z,42.22
2024-01-30T08:09:17.180Z,40.50
2024-01-30T08:11:43.958Z,42.40
2024-01-30T08:14:10.730Z,47.10
2024-01-30T08:16:37.488Z,61.30
2024-01-30T08:19:05.645Z,57.97
2024-01-30T08:21:39.456Z,46.00
2024-01-30T08:24:07.681Z,40.97
2024-01-30T08:26:35.059Z,40.72
2024-01-30T08:29:03.359Z,38.75
2024-01-30T08:31:30.447Z,39.67
2024-01-30T08:33:57.289Z,40.93
2024-01-30T08:36:24.217Z,41.65
2024-01-30T08:38:51.069Z,40.72
2024-01-30T08:41:18.001Z,43.10
2024-01-30T08:43:45.911Z,40.90
2024-01-30T08:46:13.214Z,35.20
2024-01-30T08:48:40.129Z,41.42
2024-01-30T08:51:09.636Z,36.70
2024-01-30T08:53:37.161Z,33.58
2024-01-30T08:56:05.068Z,35.85
2024-01-30T08:58:31.938Z,34.27
2024-01-30T09:01:00.121Z,27.38
2024-01-30T09:03:27.017Z,23.58
2024-01-30T09:05:53.751Z,27.27
2024-01-30T09:08:20.642Z,25.65
2024-01-30T09:10:47.665Z,26.57
2024-01-30T09:13:14.482Z,25.92
2024-01-30T09:15:41.193Z,28.33
2024-01-30T09:18:08.552Z,24.70
2024-01-30T09:20:35.506Z,25.52
2024-01-30T09:23:02.222Z,28.98
2024-01-30T09:25:29.216Z,23.35
2024-01-30T09:27:55.985Z,28.02
2024-01-30T09:30:23.138Z,20.48
2024-01-30T09:32:49.968Z,18.85
2024-01-30T09:35:17.092Z,17.83
2024-01-30T09:37:43.908Z,20.40
2024-01-30T09:40:11.386Z,17.15
2024-01-30T09:42:38.608Z,15.82
2024-01-30T09:45:07.128Z,17.33
2024-01-30T09:47:45.973Z,17.90
2024-01-30T09:50:15.158Z,23.60
2024-01-30T09:52:43.814Z,22.77
2024-01-30T09:55:10.939Z,22.23
2024-01-30T09:57:39.086Z,29.25
2024-01-30T10:00:10.340Z,23.40
2024-01-30T10:02:37.356Z,32.60
2024-01-30T10:05:04.668Z,19.90
2024-01-30T10:07:32.206Z,21.10
2024-01-30T10:09:59.384Z,16.58
2024-01-30T10:12:31.707Z,19.92
2024-01-30T10:14:59.477Z,18.45
2024-01-30T10:17:33.143Z,20.83
2024-01-30T10:20:02.086Z,15.57
2024-01-30T10:22:29.623Z,17.30
2024-01-30T10:24:56.681Z,31.92
2024-01-30T10:27:31.014Z,15.90
2024-01-30T10:29:58.014Z,15.10
2024-01-30T10:32:25.111Z,15.75
2024-01-30T10:34:52.063Z,15.90
2024-01-30T10:37:22.761Z,15.38
2024-01-30T10:39:52.105Z,15.38
2024-01-30T10:42:19.732Z,10.88
2024-01-30T10:45:21.961Z,11.77
2024-01-30T10:47:55.863Z,13.02
2024-01-30T10:50:26.207Z,13.75
2024-01-30T10:52:54.589Z,13.00
2024-01-30T10:55:23.957Z,13.65
2024-01-30T10:57:51.806Z,17.58
2024-01-30T11:00:23.724Z,17.15
2024-01-30T11:02:51.271Z,13.88
2024-01-30T11:05:32.739Z,8.15
2024-01-30T11:08:00.622Z,7.10
2024-01-30T11:10:27.501Z,9.82
2024-01-30T11:12:54.293Z,5.25
2024-01-30T11:15:22.787Z,7.13
2024-01-30T11:17:49.664Z,6.28
2024-01-30T11:20:32.563Z,14.40
2024-01-30T11:23:00.350Z,7.57
2024-01-30T11:25:27.524Z,7.50
2024-01-30T11:27:56.360Z,11.13
2024-01-30T11:30:24.424Z,6.00
2024-01-30T11:33:06.310Z,19.50
2024-01-30T11:35:38.203Z,12.18
2024-01-30T11:38:06.018Z,7.97
2024-01-30T11:40:36.511Z,10.68
2024-01-30T11:43:06.276Z,10.73
2024-01-30T11:45:34.100Z,4.70
2024-01-30T11:48:08.740Z,3.75
2024-01-30T11:50:36.226Z,7.95
2024-01-30T11:53:03.471Z,10.52
2024-01-30T11:55:34.367Z,18.17
2024-01-30T11:58:02.736Z,8.57
2024-01-30T12:00:32.251Z,7.70
2024-01-30T12:02:59.501Z,7.95
2024-01-30T12:05:26.889Z,4.40
2024-01-30T12:07:54.229Z,10.93
2024-01-30T12:10:22.586Z,8.73
2024-01-30T12:12:51.852Z,7.68
2024-01-30T12:15:20.119Z,6.57
2024-01-30T12:17:46.811Z,6.28
2024-01-30T12:20:15.856Z,7.45
2024-01-30T12:22:44.512Z,9.45
2024-01-30T12:25:13.162Z,9.35
2024-01-30T12:27:41.336Z,7.40
2024-01-30T12:30:10.156Z,15.48
2024-01-30T12:32:42.112Z,7.50
2024-01-30T12:35:17.342Z,16.38
2024-01-30T12:37:45.630Z,15.05
2024-01-30T12:40:15.923Z,15.00
2024-01-30T12:42:52.845Z,11.82
2024-01-30T12:45:24.152Z,10.07
2024-01-30T12:47:51.410Z,7.65
2024-01-30T12:50:19.208Z,12.52
2024-01-30T12:52:49.541Z,11.20
2024-01-30T12:55:17.309Z,16.08
2024-01-30T12:57:44.405Z,12.48
2024-01-30T13:00:12.284Z,12.38
2024-01-30T13:02:39.254Z,12.23
2024-01-30T13:05:06.307Z,19.80
2024-01-30T13:07:33.205Z,20.38
2024-01-30T13:10:04.361Z,11.80
2024-01-30T13:12:33.759Z,15.15
2024-01-30T13:15:05.996Z,9.77
2024-01-30T13:17:33.751Z,8.95
2024-01-30T13:20:07.646Z,11.52
2024-01-30T13:22:40.157Z,10.77
2024-01-30T13:25:08.668Z,13.32
2024-01-30T13:27:36.058Z,12.98
2024-01-30T13:30:03.893Z,14.60
2024-01-30T13:32:30.850Z,12.93
2024-01-30T13:34:57.735Z,11.05
2024-01-30T13:37:25.199Z,12.30
2024-01-30T13:39:52.152Z,10.63
2024-01-30T13:42:18.900Z,13.27
2024-01-30T13:44:45.682Z,17.40
2024-01-30T13:47:12.549Z,11.07
2024-01-30T13:49:39.409Z,11.30
2024-01-30T13:52:07.002Z,13.10
2024-01-30T13:54:34.173Z,13.90
2024-01-30T13:57:01.126Z,16.58
2024-01-30T13:59:27.954Z,14.43
2024-01-30T14:01:54.861Z,15.90
2024-01-30T14:04:21.710Z,15.23
2024-01-30T14:06:53.895Z,14.63
2024-01-30T14:09:27.911Z,10.07
2024-01-30T14:11:54.676Z,12.38
2024-01-30T14:14:21.445Z,11.10
2024-01-30T14:16:48.236Z,13.55
2024-01-30T14:19:15.093Z,15.25
2024-01-30T14:21:41.950Z,18.67
2024-01-30T14:24:09.838Z,13.68
2024-01-30T14:26:36.602Z,16.73
2024-01-30T14:29:03.407Z,13.43
2024-01-30T14:31:30.251Z,14.25
2024-01-30T14:33:56.990Z,12.60
2024-01-30T14:36:23.833Z,10.68
2024-01-30T14:38:50.737Z,12.90
2024-01-30T14:41:17.459Z,11.95
2024-01-30T14:43:44.724Z,12.45
2024-01-30T14:46:11.714Z,14.50
2024-01-30T14:48:38.619Z,12.60
2024-01-30T14:51:05.577Z,13.70
2024-01-30T14:53:32.397Z,11.00
2024-01-30T14:55:59.201Z,9.82
2024-01-30T14:58:26.020Z,11.57
2024-01-30T15:00:52.973Z,13.80
2024-01-30T15:03:20.419Z,12.77
2024-01-30T15:05:47.152Z,12.48
2024-01-30T15:08:14.063Z,16.67
2024-01-30T15:10:41.524Z,11.63
2024-01-30T15:13:08.339Z,9.73
2024-01-30T15:15:35.692Z,12.95
2024-01-30T15:18:03.677Z,12.48
2024-01-30T15:20:32.585Z,12.48
2024-01-30T15:22:59.375Z,11.93
2024-01-30T15:25:26.486Z,11.95
2024-01-30T15:27:53.472Z,16.40
2024-01-30T15:30:20.836Z,15.40
2024-01-30T15:32:48.521Z,18.90
2024-01-30T15:35:15.587Z,20.58
2024-01-30T15:37:42.407Z,25.02
2024-01-30T15:40:10.040Z,20.48
2024-01-30T15:42:36.825Z,15.13
2024-01-30T15:45:03.957Z,18.60
2024-01-30T15:47:30.931Z,21.70
2024-01-30T15:49:57.892Z,32.80
2024-01-30T15:52:24.835Z,36.92
2024-01-30T15:54:51.777Z,22.75
2024-01-30T15:57:18.649Z,35.92
2024-01-30T15:59:46.020Z,19.88
2024-01-30T16:02:13.054Z,16.80
2024-01-30T16:04:39.941Z,18.60
2024-01-30T16:07:06.765Z,27.77
2024-01-30T16:09:33.749Z,22.13
2024-01-30T16:12:00.549Z,13.68
2024-01-30T16:14:27.391Z,9.85
2024-01-30T16:16:54.272Z,16.55
2024-01-30T16:19:21.678Z,22.85
2024-01-30T16:21:48.479Z,20.85
2024-01-30T16:24:15.281Z,33.33
2024-01-30T16:26:45.116Z,32.03
2024-01-30T16:29:12.147Z,57.70
2024-01-30T16:31:38.856Z,44.33
2024-01-30T16:34:05.866Z,29.42
2024-01-30T16:36:32.727Z,25.50
2024-01-30T16:38:59.901Z,17.52
2024-01-30T16:41:29.436Z,17.35
2024-01-30T16:43:56.211Z,13.30
2024-01-30T16:46:23.238Z,18.37
2024-01-30T16:48:53.238Z,21.13
2024-01-30T16:51:20.125Z,17.90
2024-01-30T16:53:48.741Z,15.90
2024-01-30T16:56:15.911Z,13.38
2024-01-30T16:58:42.733Z,16.77
2024-01-30T17:01:09.631Z,13.90
2024-01-30T17:03:36.418Z,16.30
2024-01-30T17:06:10.467Z,17.90
2024-01-30T17:08:37.245Z,14.50
2024-01-30T17:11:04.500Z,15.63
2024-01-30T17:13:31.950Z,23.23
2024-01-30T17:15:59.418Z,14.27
2024-01-30T17:18:26.179Z,21.05
2024-01-30T17:20:53.129Z,21.63
2024-01-30T17:23:21.842Z,14.83
2024-01-30T17:25:51.966Z,9.07
2024-01-30T17:28:25.381Z,16.40
2024-01-30T17:30:52.413Z,11.50
2024-01-30T17:33:19.277Z,12.98
2024-01-30T17:35:47.013Z,12.70
2024-01-30T17:38:13.866Z,7.50
2024-01-30T17:40:40.594Z,12.50
2024-01-30T17:43:07.341Z,11.68
2024-01-30T17:45:34.241Z,15.45
2024-01-30T17:48:01.884Z,16.83
2024-01-30T17:50:28.773Z,20.45
2024-01-30T17:52:55.487Z,28.58
2024-01-30T17:55:23.510Z,36.75
2024-01-30T17:57:50.378Z,33.50
2024-01-30T18:00:19.556Z,19.30
2024-01-30T18:02:46.911Z,24.38
2024-01-30T18:05:14.061Z,27.45
2024-01-30T18:07:41.379Z,55.90
2024-01-30T18:10:09.437Z,71.00
2024-01-30T18:12:36.978Z,25.87
2024-01-30T18:15:04.496Z,21.77
2024-01-30T18:17:31.252Z,42.67
2024-01-30T18:19:57.985Z,41.80
2024-01-30T18:22:25.312Z,45.90
2024-01-30T18:24:52.072Z,13.93
2024-01-30T18:27:18.967Z,10.27
2024-01-30T18:29:52.166Z,21.60
2024-01-30T18:32:20.154Z,15.60
2024-01-30T18:34:47.097Z,15.93
2024-01-30T18:37:14.000Z,18.47
2024-01-30T18:39:43.238Z,13.95
2024-01-30T18:42:10.177Z,19.10
2024-01-30T18:44:36.893Z,29.95
2024-01-30T18:47:04.758Z,26.73
2024-01-30T18:49:31.690Z,28.70
2024-01-30T18:51:59.654Z,27.98
2024-01-30T18:54:26.825Z,30.80
2024-01-30T18:56:53.574Z,22.35
2024-01-30T18:59:20.338Z,15.40
2024-01-30T19:01:48.091Z,22.93
2024-01-30T19:04:15.074Z,25.67
2024-01-30T19:06:45.145Z,40.83
2024-01-30T19:09:12.065Z,35.55
2024-01-30T19:11:38.812Z,54.72
2024-01-30T19:14:05.604Z,76.23
2024-01-30T19:16:32.629Z,66.22
2024-01-30T19:18:59.483Z,72.93
2024-01-30T19:21:55.344Z,93.35
2024-01-30T19:24:22.310Z,127.80
2024-01-30T19:26:49.622Z,81.67
2024-01-30T19:29:16.552Z,70.30
2024-01-30T19:31:43.459Z,81.28
2024-01-30T19:34:10.411Z,95.00
2024-01-30T19:36:41.231Z,116.50
2024-01-30T19:39:13.207Z,127.27
2024-01-30T19:41:42.291Z,46.10
2024-01-30T19:44:10.094Z,105.45
2024-01-30T19:46:38.456Z,102.85
2024-01-30T19:49:06.989Z,65.47
2024-01-30T19:51:33.827Z,22.17
2024-01-30T19:54:02.493Z,53.20
2024-01-30T19:56:29.207Z,97.07
2024-01-30T19:58:55.944Z,45.60
2024-01-30T20:01:23.704Z,12.88
2024-01-30T20:03:50.615Z,22.07
2024-01-30T20:06:18.184Z,50.58
2024-01-30T20:08:45.165Z,37.78
2024-01-30T20:11:16.034Z,44.55
2024-01-30T20:13:44.345Z,48.05
2024-01-30T20:16:11.458Z,48.40
2024-01-30T20:18:38.571Z,65.20
2024-01-30T20:21:07.182Z,92.28
2024-01-30T20:23:34.217Z,104.25
2024-01-30T20:26:03.315Z,128.00
2024-01-30T20:28:32.210Z,124.47
2024-01-30T20:30:59.880Z,105.75
2024-01-30T20:33:27.552Z,57.92
2024-01-30T20:35:55.125Z,55.47
2024-01-30T20:38:22.810Z,77.90
2024-01-30T20:40:50.967Z,89.30
2024-01-30T20:43:17.824Z,88.28
2024-01-30T20:45:44.787Z,91.57
2024-01-30T20:48:12.006Z,99.70
2024-01-30T20:50:38.817Z,88.00
2024-01-30T20:53:05.604Z,81.30
2024-01-30T20:55:32.476Z,73.43
2024-01-30T20:57:59.258Z,81.97
2024-01-30T21:00:26.571Z,97.93
2024-01-30T21:02:53.347Z,96.00
2024-01-30T21:05:24.206Z,68.80
2024-01-30T21:07:51.751Z,59.80
2024-01-30T21:10:19.988Z,34.95
2024-01-30T21:12:46.822Z,55.50
2024-01-30T21:15:13.577Z,53.38
2024-01-30T21:17:40.428Z,56.53
2024-01-30T21:20:08.012Z,50.65
2024-01-30T21:22:34.976Z,39.53
2024-01-30T21:25:12.256Z,32.60
2024-01-30T21:27:39.745Z,44.38
2024-01-30T21:30:07.404Z,36.53
2024-01-30T21:32:34.445Z,36.13
2024-01-30T21:35:01.442Z,24.17
2024-01-30T21:37:28.366Z,17.70
2024-01-30T21:39:56.076Z,26.25
2024-01-30T21:42:23.497Z,27.87
2024-01-30T21:44:50.325Z,32.38
2024-01-30T21:47:17.050Z,26.77
2024-01-30T21:49:44.033Z,28.95
2024-01-30T21:52:10.932Z,76.50
2024-01-30T21:54:38.762Z,85.87
2024-01-30T21:57:06.694Z,89.05
2024-01-30T21:59:33.609Z,83.68
2024-01-30T22:02:00.541Z,87.25
2024-01-30T22:04:27.835Z,69.35
2024-01-30T22:06:54.660Z,56.53
2024-01-30T22:09:23.255Z,54.42
2024-01-30T22:11:56.258Z,73.32
2024-01-30T22:14:22.966Z,62.40
2024-01-30T22:16:49.836Z,79.05
2024-01-30T22:19:16.679Z,73.30
2024-01-30T22:21:43.407Z,76.90
2024-01-30T22:24:10.173Z,64.80
2024-01-30T22:26:44.189Z,65.63
2024-01-30T22:29:11.419Z,66.20
2024-01-30T22:31:38.268Z,67.93
2024-01-30T22:34:05.306Z,67.22
2024-01-30T22:36:32.169Z,77.65
2024-01-30T22:38:58.973Z,72.22
2024-01-30T22:41:26.457Z,49.58
2024-01-30T22:43:53.787Z,44.63
2024-01-30T22:46:21.196Z,42.00
2024-01-30T22:48:48.843Z,44.10
2024-01-30T22:51:15.679Z,37.90
2024-01-30T22:53:42.547Z,42.45
2024-01-30T22:56:09.303Z,45.17
2024-01-30T22:58:35.974Z,42.00
2024-01-30T23:01:02.814Z,50.45
2024-01-30T23:03:29.656Z,37.72
2024-01-30T23:05:56.469Z,40.58
2024-01-30T23:08:23.270Z,46.07
2024-01-30T23:10:50.103Z,38.08
2024-01-30T23:13:16.970Z,26.50
2024-01-30T23:15:43.744Z,25.25
2024-01-30T23:18:10.643Z,32.58
2024-01-30T23:20:37.776Z,26.77
2024-01-30T23:23:04.792Z,24.83
2024-01-30T23:25:31.598Z,33.50
2024-01-30T23:27:58.542Z,154.20
2024-01-30T23:30:25.371Z,43.67
2024-01-30T23:32:55.198Z,31.63
2024-01-30T23:35:22.283Z,35.30
2024-01-30T23:37:49.163Z,31.85
2024-01-30T23:40:16.139Z,34.33
2024-01-30T23:42:43.101Z,31.63
2024-01-30T23:45:11.624Z,37.10
2024-01-30T23:47:38.498Z,50.17
2024-01-30T23:50:05.826Z,40.30
2024-01-30T23:52:34.359Z,48.63
2024-01-30T23:55:01.376Z,46.25
2024-01-30T23:57:28.147Z,45.23
2024-01-30T23:59:57.210Z,50.38
